Airfield :
LOGIN :

Register | Disclaimer

   EN    FR    IT 

 










Legend :    VFR   Marginal VFR   IFR   Intensive IFR   Very Intensive IFR
Visi :
Ceiling :
>= 8 km
>= 3000ft
5 to 8 km
1000 to 3000 ft
1500m to 5 km
500 to 1000 ft
800 to 1500m
200 to 500 ft
< 800m
< 200 ft
Symbols :   Thunderstorms  Fog  Heavy snow  Heavy precipitations  Wind > 20 kt
SIGMETs :     Misc.  Thunderstorms  Icing  Turbulence  Mountain Waves  Volcanic Ashes






- Airport Elevation : 74 ft
- IATA code : EIN


EHEH - Eindhoven

CURRENT METAR :
  • 021255Z AUTO 03015KT 360V100 7000 BR BKN009 OVC011 03/01 Q1023 GRN TEMPO 3500 -RADZ SCT006 BKN008 OVC010

EXPIRED METARs :
  • 021225Z AUTO 04013KT 010V080 7000 BR OVC010 03/01 Q1023 GRN TEMPO 3500 -RADZ SCT006 BKN008 OVC010
  • 021155Z AUTO 03013KT 010V070 7000 BR BKN009 OVC010 04/02 Q1023 GRN TEMPO 3500 -RADZ SCT006 BKN008 OVC010
  • 021125Z AUTO 03010KT 360V060 6000 BR BKN007 BKN009 OVC010 03/02 Q1023 GRN TEMPO 3500 -RADZ SCT006 BKN008 OVC010
  • 021100Z AUTO 04011KT 020V080 7000 BR BKN007 OVC008 03/02 Q1023 GRN TEMPO 3500 -RADZ SCT006 BKN008 OVC010
  • 021025Z AUTO 04009KT 360V060 7000 BR BKN006 BKN007 OVC009 03/02 Q1024 REDZ YLO TEMPO 3500 -RADZ SCT006 BKN008 OVC010

TAF TAF EHEH
Valid from the 02 at 12:00 until the 03 at 18:00 UTC


021106Z 0212/0318 05012KT 8000 BKN015
TEMPO 0212/0306 4000 -DZ SCT006 BKN008
BECMG 0306/0308 06007KT BKN020
TEMPO 0306/0312 BKN015



MET'MAP, your aeronautical weather chart ! - Copyright ORBIFLY December 2007 - Disclaimer

ORBIFLY MET'MAP TEAM :

Programming & Development : Alexandra Zaïnal
Original concept : Baudouin d'Aumeries
Technical & hardware support : Manuel Goepfert
Assistance : Marc-Olivier Méhu




SOURCES & CREDITS :

   NOAA